Terminal Aerodrome Forecast
Issued by NWS

Home | Current Version | Previous Version | Text Only | Print | Product List | Glossary On
Versions: 1 2 3 4 5 6 7 8 9 10 11 12 13 14 15 16
000
FTUS43 KLSX 250910 AAA
TAFSUS
TAF AMD
KSUS 250910Z 2509/2606 14010KT 6SM -RA BR OVC050
     FM251100 18008KT P6SM BKN090
     FM251700 15012G18KT 6SM -RA VCTS BKN035CB
     FM260100 15006KT P6SM BKN035
     FM260500 19005KT 6SM BR OVC015=

USA.gov is the U.S. government's official web portal to all federal, state and local government web resources and services.